Pagrindinis puslapis
METAR-TAF:

METAR-TAF

Oro uostai :

El Palomar, Argentina

platuma: 34-36S, ilguma: 058-36W, Aukštis: 18 m

Dabartinis oras

Ataskaita buvo paskelbta 5 valandos ir 15 minutes, ne 11:21 UTC
Vėjas 6 kt iš Pietryčių
Temperatūra 13°C
Drėgmė 100%
Slėgis 1018 hPa
Matomumas: 1400 m
Apsiniaukę ne aukštis 300 ft
rūkana

METAR: SADP 091121Z 14006KT 1400 R17/1700 BR OVC003 13/13 Q1018

Laikas: 13:36 (16:36 UTC)


TAF: trūkstamas

Orai ataskaitas ir orų prognozės (METAR, TAF).

turimą stotys yra geltonos ir raudonos taškus žemėlapyje.

Perkelti pele per norėdami pamatyti stoties vardą.

Tada spustelėkite, norėdami matyti oro stebėjimo ir prognozės.

Norėdami pakeisti žemėlapį: spustelėkite ant žalios mygtukų su juodo kryžiaus žemyn,; žalią mygtuką su brūkšneliu, jei norite nutolinti; arba žalių rodyklių gretimoms žemėlapius.


METAR-TAF: